Terminal Aerodrome Forecast
Issued by NWS

Current Version | Previous Version | Graphics & Text | Print | Product List | Glossary On
Versions: 1 2 3 4 5 6 7 8 9 10 11 12 13 14 15 16
429
FTUS41 KPBZ 151120
TAFMGW
TAF
KMGW 151120Z 1512/1612 20006KT P6SM SCT250 WS020/24035KT
     FM151400 20012G22KT P6SM SCT050
     FM152200 25015G25KT 5SM -SHRA OVC035
     FM160000 29012G22KT P6SM VCSH BKN035
     FM160300 29008KT P6SM BKN025=

USA.gov is the U.S. government's official web portal to all federal, state and local government web resources and services.